createdAt,value
2019-03-21T00:04:27.422Z,12.4
2019-03-21T00:09:15.311Z,12.2
2019-03-21T00:14:07.021Z,12
2019-03-21T00:18:54.722Z,11.9
2019-03-21T00:23:42.492Z,11.8
2019-03-21T00:28:29.712Z,11.7
2019-03-21T00:33:16.786Z,11.6
2019-03-21T00:38:04.282Z,11.5
2019-03-21T00:42:51.103Z,11.4
2019-03-21T00:47:38.758Z,11.3
2019-03-21T00:53:59.062Z,11.2
2019-03-21T00:58:46.886Z,11.1
2019-03-21T01:03:34.754Z,11.1
2019-03-21T01:08:22.084Z,11
2019-03-21T01:13:11.241Z,10.9
2019-03-21T01:18:00.706Z,10.8
2019-03-21T01:22:47.642Z,10.7
2019-03-21T01:27:35.767Z,10.7
2019-03-21T01:32:22.746Z,10.6
2019-03-21T01:37:09.639Z,10.5
2019-03-21T01:41:56.789Z,10.4
2019-03-21T01:46:44.189Z,10.4
2019-03-21T01:51:31.612Z,10.4
2019-03-21T01:56:18.817Z,10.3
2019-03-21T02:01:08.679Z,10.2
2019-03-21T02:05:56.866Z,10.2
2019-03-21T02:13:36.343Z,10
2019-03-21T02:18:23.829Z,10
2019-03-21T02:23:11.889Z,9.9
2019-03-21T02:27:59.301Z,9.9
2019-03-21T02:32:46.179Z,9.8
2019-03-21T02:37:33.627Z,9.8
2019-03-21T02:42:21.115Z,9.7
2019-03-21T02:47:26.865Z,9.6
2019-03-21T02:52:14.200Z,9.6
2019-03-21T02:57:01.120Z,9.5
2019-03-21T03:01:47.980Z,9.5
2019-03-21T03:06:35.120Z,9.4
2019-03-21T03:11:22.031Z,9.4
2019-03-21T03:16:26.851Z,9.3
2019-03-21T03:21:29.395Z,9.2
2019-03-21T03:26:17.074Z,9.2
2019-03-21T03:31:03.958Z,9.1
2019-03-21T03:35:51.894Z,9.1
2019-03-21T03:40:39.312Z,9
2019-03-21T03:45:37.238Z,8.9
2019-03-21T03:53:21.962Z,8.9
2019-03-21T03:58:09.500Z,8.8
2019-03-21T04:02:56.776Z,8.8
2019-03-21T04:07:44.712Z,8.7
2019-03-21T04:12:31.718Z,8.7
2019-03-21T04:17:19.221Z,8.6
2019-03-21T04:22:06.947Z,8.6
2019-03-21T04:26:54.243Z,8.5
2019-03-21T04:31:41.314Z,8.5
2019-03-21T04:36:28.279Z,8.4
2019-03-21T04:41:15.231Z,8.4
2019-03-21T04:47:06.388Z,8.3
2019-03-21T04:51:53.757Z,8.3
2019-03-21T04:56:41.058Z,8.3
2019-03-21T05:01:28.026Z,8.2
2019-03-21T05:09:08.703Z,8.2
2019-03-21T05:13:55.685Z,8.1
2019-03-21T05:18:43.436Z,8
2019-03-21T05:23:30.706Z,8
2019-03-21T05:31:42.593Z,8
2019-03-21T05:36:30.250Z,8
2019-03-21T05:41:17.536Z,7.9
2019-03-21T05:46:07.066Z,7.9
2019-03-21T05:50:54.501Z,7.8
2019-03-21T05:57:46.829Z,7.8
2019-03-21T06:02:34.814Z,7.8
2019-03-21T06:07:22.259Z,7.8
2019-03-21T06:12:10.178Z,7.7
2019-03-21T06:20:31.850Z,7.7
2019-03-21T06:25:18.805Z,7.7
2019-03-21T06:30:06.276Z,7.7
2019-03-21T06:34:54.139Z,7.7
2019-03-21T06:41:48.054Z,7.6
2019-03-21T06:46:35.618Z,7.6
2019-03-21T06:51:22.430Z,7.6
2019-03-21T06:56:09.887Z,7.6
2019-03-21T07:01:12.248Z,7.6
2019-03-21T07:06:00.250Z,7.6
2019-03-21T07:10:47.078Z,7.6
2019-03-21T07:15:34.949Z,7.6
2019-03-21T07:20:22.050Z,7.6
2019-03-21T07:26:43.712Z,7.6
2019-03-21T07:31:30.829Z,7.6
2019-03-21T07:36:18.657Z,7.6
2019-03-21T07:41:08.046Z,7.6
2019-03-21T07:47:29.325Z,7.6
2019-03-21T07:52:16.233Z,7.7
2019-03-21T07:57:03.075Z,7.7
2019-03-21T08:01:50.054Z,7.7
2019-03-21T08:10:53.679Z,7.7
2019-03-21T08:15:41.155Z,7.8
2019-03-21T08:20:27.944Z,7.8
2019-03-21T08:25:15.012Z,7.8
2019-03-21T08:33:41.103Z,7.9
2019-03-21T08:38:27.962Z,7.9
2019-03-21T08:43:14.946Z,7.9
2019-03-21T08:48:01.964Z,8
2019-03-21T08:55:24.971Z,8.1
2019-03-21T09:00:11.897Z,8.1
2019-03-21T09:04:59.934Z,8.1
2019-03-21T09:09:47.700Z,8.2
2019-03-21T09:14:34.839Z,8.3
2019-03-21T09:19:22.057Z,8.3
2019-03-21T09:24:40.853Z,8.4
2019-03-21T09:29:27.886Z,8.4
2019-03-21T09:34:15.999Z,8.5
2019-03-21T09:39:03.068Z,8.5
2019-03-21T09:43:51.722Z,8.6
2019-03-21T09:48:39.354Z,8.6
2019-03-21T09:53:26.139Z,8.7
2019-03-21T09:58:13.521Z,8.8
2019-03-21T10:03:00.951Z,8.8
2019-03-21T10:07:48.080Z,8.9
2019-03-21T10:12:35.183Z,8.9
2019-03-21T10:18:57.061Z,9
2019-03-21T10:23:44.572Z,9
2019-03-21T10:28:31.461Z,9.1
2019-03-21T10:33:18.753Z,9.1
2019-03-21T10:38:05.600Z,9.2
2019-03-21T10:42:53.290Z,9.2
2019-03-21T10:47:40.265Z,9.3
2019-03-21T10:52:27.671Z,9.3
2019-03-21T10:59:03.626Z,9.4
2019-03-21T11:03:52.633Z,9.4
2019-03-21T11:08:39.483Z,9.5
2019-03-21T11:13:26.722Z,9.5
2019-03-21T11:18:13.869Z,9.5
2019-03-21T11:23:00.801Z,9.6
2019-03-21T11:27:49.800Z,9.6
2019-03-21T11:32:37.255Z,9.6
2019-03-21T11:37:24.129Z,9.7
2019-03-21T11:42:11.028Z,9.7
2019-03-21T11:46:59.044Z,9.8
2019-03-21T11:51:46.488Z,9.8
2019-03-21T11:56:33.791Z,9.8
2019-03-21T12:01:21.621Z,9.9
2019-03-21T12:06:08.943Z,9.9
2019-03-21T12:10:55.778Z,9.9
2019-03-21T12:15:44.706Z,10
2019-03-21T12:20:34.103Z,10
2019-03-21T12:25:21.545Z,10.1
2019-03-21T12:30:10.318Z,10.1
2019-03-21T12:34:58.464Z,10.1
2019-03-21T12:39:45.838Z,10.2
2019-03-21T12:44:33.877Z,10.2
2019-03-21T12:49:21.053Z,10.3
2019-03-21T12:54:07.937Z,10.3
2019-03-21T12:58:54.945Z,10.4
2019-03-21T13:03:42.315Z,10.4
2019-03-21T13:08:34.033Z,10.5
2019-03-21T13:13:21.498Z,10.5
2019-03-21T13:18:08.793Z,10.6
2019-03-21T13:22:56.586Z,10.6
2019-03-21T13:27:44.649Z,10.6
2019-03-21T13:32:31.696Z,10.7
2019-03-21T13:37:18.781Z,10.7
2019-03-21T13:42:05.792Z,10.8
2019-03-21T13:46:54.455Z,10.8
2019-03-21T13:51:41.818Z,10.9
2019-03-21T13:56:37.726Z,10.9
2019-03-21T14:01:27.640Z,10.9
2019-03-21T14:06:15.170Z,11
2019-03-21T14:11:02.007Z,11
2019-03-21T14:15:49.647Z,11
2019-03-21T14:20:37.869Z,11.1
2019-03-21T14:25:24.988Z,11.1
2019-03-21T14:30:11.948Z,11.1
2019-03-21T14:34:59.515Z,11.2
2019-03-21T14:39:46.335Z,11.2
2019-03-21T14:44:34.116Z,11.2
2019-03-21T14:49:20.943Z,11.3
2019-03-21T14:54:08.722Z,11.3
2019-03-21T14:58:55.742Z,11.4
2019-03-21T15:03:43.435Z,11.4
2019-03-21T15:08:30.801Z,11.5
2019-03-21T15:13:18.534Z,11.5
2019-03-21T15:18:05.655Z,11.5
2019-03-21T15:22:52.758Z,11.6
2019-03-21T15:27:39.647Z,11.6
2019-03-21T15:32:27.263Z,11.6
2019-03-21T15:37:14.277Z,11.7
2019-03-21T15:42:03.093Z,11.7
2019-03-21T15:46:52.575Z,11.8
2019-03-21T15:51:41.898Z,11.8
2019-03-21T16:00:08.191Z,11.9
2019-03-21T16:04:55.200Z,11.9
2019-03-21T16:09:44.346Z,12
2019-03-21T16:14:31.596Z,12
2019-03-21T16:19:18.764Z,12.1
2019-03-21T16:24:06.197Z,12.1
2019-03-21T16:28:53.284Z,12.2
2019-03-21T16:33:43.249Z,12.2
2019-03-21T16:38:32.163Z,12.3
2019-03-21T16:43:19.375Z,12.3
2019-03-21T16:48:09.089Z,12.4
2019-03-21T16:55:52.093Z,12.5
2019-03-21T17:00:40.530Z,12.6
2019-03-21T17:05:27.807Z,12.6
2019-03-21T17:10:14.907Z,12.7
2019-03-21T17:15:01.736Z,12.7
2019-03-21T17:19:48.870Z,12.8
2019-03-21T17:24:37.020Z,12.8
2019-03-21T17:29:24.195Z,12.9
2019-03-21T17:34:13.253Z,12.9
2019-03-21T17:42:08.898Z,13
2019-03-21T17:46:57.939Z,13.1
2019-03-21T17:51:46.651Z,13.2
2019-03-21T17:56:35.499Z,13.2
2019-03-21T18:02:40.129Z,13.3
2019-03-21T18:07:27.450Z,13.3
2019-03-21T18:12:14.509Z,13.4
2019-03-21T18:17:01.737Z,13.4
2019-03-21T18:24:58.808Z,13.5
2019-03-21T18:29:46.818Z,13.6
2019-03-21T18:34:35.150Z,13.6
2019-03-21T18:39:22.485Z,13.7
2019-03-21T18:44:10.030Z,13.7
2019-03-21T18:48:56.888Z,13.8
2019-03-21T18:53:44.485Z,13.8
2019-03-21T18:58:31.547Z,13.8
2019-03-21T19:03:18.471Z,13.9
2019-03-21T19:08:05.384Z,13.9
2019-03-21T19:15:30.519Z,14
2019-03-21T19:20:17.598Z,14.1
2019-03-21T19:25:17.493Z,14.1
2019-03-21T19:30:05.557Z,14.1
2019-03-21T19:34:52.366Z,14.2
2019-03-21T19:42:05.652Z,14.3
2019-03-21T19:46:52.691Z,14.3
2019-03-21T19:51:39.750Z,14.3
2019-03-21T19:56:26.724Z,14.4
2019-03-21T20:01:14.068Z,14.4
2019-03-21T20:08:07.980Z,14.5
2019-03-21T20:12:55.381Z,14.5
2019-03-21T20:17:42.418Z,14.6
2019-03-21T20:22:29.458Z,14.6
2019-03-21T20:32:20.373Z,14.7
2019-03-21T20:37:09.008Z,14.8
2019-03-21T20:41:56.476Z,14.8
2019-03-21T20:46:44.118Z,14.9
2019-03-21T20:51:31.343Z,14.9
2019-03-21T20:56:35.216Z,15
2019-03-21T21:01:22.710Z,15.1
2019-03-21T21:06:09.940Z,15.1
2019-03-21T21:10:58.513Z,15.2
2019-03-21T21:15:45.456Z,15.2
2019-03-21T21:22:52.526Z,15.3
2019-03-21T21:27:48.808Z,15.4
2019-03-21T21:32:37.574Z,15.4
2019-03-21T21:37:24.735Z,15.5
2019-03-21T21:45:53.911Z,15.6
2019-03-21T21:50:43.082Z,15.7
2019-03-21T21:55:30.396Z,15.7
2019-03-21T22:00:17.216Z,15.8
2019-03-21T22:06:37.951Z,15.9
2019-03-21T22:11:24.797Z,15.9
2019-03-21T22:16:12.043Z,16
2019-03-21T22:21:01.156Z,16
2019-03-21T22:28:50.487Z,16.2
2019-03-21T22:33:38.269Z,16.2
2019-03-21T22:38:25.556Z,16.3
2019-03-21T22:43:12.611Z,16.3
2019-03-21T22:52:09.598Z,16.4
2019-03-21T22:56:56.470Z,16.5
2019-03-21T23:01:43.706Z,16.6
2019-03-21T23:06:31.011Z,16.6
2019-03-21T23:15:13.583Z,16.8
2019-03-21T23:20:00.622Z,16.8
2019-03-21T23:24:47.715Z,16.9
2019-03-21T23:29:34.814Z,16.9
2019-03-21T23:34:22.289Z,17
2019-03-21T23:39:25.818Z,17.1
2019-03-21T23:44:13.167Z,17.1
2019-03-21T23:49:00.407Z,17.2
2019-03-21T23:53:47.977Z,17.3
2019-03-21T23:58:35.703Z,17.3
